METAR Data
IDs: Format: Raw Decoded Include TAF

Data at: 1217 UTC 23 Jun 2021

KSIY 231153Z AUTO 04009KT 10SM CLR 13/04 A2993 RMK AO2 SLP119 T01330044 10233 20133 51005